Air Navigation Services of Czech Republic
Airport: LKCV Updated:  07.02.2023 13:59:31  UTC
 METAR LKCV 07.02. 14:00 ...
METAR LKCV 071400Z VRB02KT CAVOK M00/M07 Q1039 NOSIG RMK BLU BLU=
 TAF LKCV 07.02. 11:00 ...
TAF LKCV 071100Z 0712/0812 VRB02KT CAVOK      TEMPO 0802/0808 3000 BR      PROB30 TEMPO 0803/0807 0700 FZFG VV001=